Time;durP1;ratioP1;P1;durP2;ratioP2;P2;SDS_P1;SDS_P2;PMS_P1;PMS_P2;Temp;Humidity;BMP_temperature;BMP_pressure;BME280_temperature;BME280_humidity;BME280_pressure;Samples;Min_cycle;Max_cycle;Signal;HPM_P1;HPM_P2
2023/08/12 00:00:19;;;;;;;11.75;6.70;;;20.40;99.90;;;;;;5077504;28;20059;-72
2023/08/12 00:02:45;;;;;;;10.50;6.65;;;20.40;99.90;;;;;;5076791;28;20131;-71
2023/08/12 00:05:12;;;;;;;9.65;6.45;;;20.30;99.90;;;;;;5076972;28;20040;-72
2023/08/12 00:07:42;;;;;;;12.15;6.35;;;20.40;99.90;;;;;;5078623;28;20044;-72
2023/08/12 00:10:09;;;;;;;9.95;6.85;;;20.30;99.90;;;;;;5077114;28;20056;-72
2023/08/12 00:12:35;;;;;;;11.00;6.97;;;20.30;99.90;;;;;;5076558;28;20049;-73
2023/08/12 00:15:02;;;;;;;9.30;6.28;;;20.30;99.90;;;;;;5077952;28;20112;-70
2023/08/12 00:17:28;;;;;;;11.80;7.13;;;20.30;99.90;;;;;;5059011;28;20045;-72
2023/08/12 00:19:54;;;;;;;9.90;6.72;;;20.30;99.90;;;;;;5076644;28;20055;-73
2023/08/12 00:22:20;;;;;;;11.10;6.95;;;20.20;99.90;;;;;;5076896;28;20036;-73
2023/08/12 00:24:45;;;;;;;10.60;6.72;;;20.20;99.90;;;;;;5078332;28;20140;-72
2023/08/12 00:27:11;;;;;;;13.13;6.88;;;20.20;99.90;;;;;;5075519;28;20053;-72
2023/08/12 00:29:37;;;;;;;12.55;6.72;;;20.20;99.90;;;;;;5076384;28;20549;-72
2023/08/12 00:32:03;;;;;;;11.45;7.53;;;20.20;99.90;;;;;;5076226;28;20052;-72
2023/08/12 00:34:29;;;;;;;10.45;6.93;;;20.10;99.90;;;;;;5077124;28;20052;-73
2023/08/12 00:36:55;;;;;;;11.02;6.95;;;20.20;99.90;;;;;;5059717;28;20135;-72
2023/08/12 00:39:21;;;;;;;16.33;8.55;;;20.20;99.90;;;;;;5075338;28;20900;-72
2023/08/12 00:41:46;;;;;;;9.95;6.05;;;20.10;99.90;;;;;;5077064;28;20052;-73
2023/08/12 00:44:12;;;;;;;11.80;7.43;;;20.10;99.90;;;;;;5075464;28;20075;-72
2023/08/12 00:46:40;;;;;;;9.55;6.93;;;20.00;99.90;;;;;;5076466;28;20108;-73
2023/08/12 00:49:06;;;;;;;11.10;6.95;;;20.00;99.90;;;;;;5075678;28;20787;-72
2023/08/12 00:51:33;;;;;;;12.45;6.97;;;20.00;99.90;;;;;;5077142;28;20048;-73
2023/08/12 00:53:59;;;;;;;11.25;8.00;;;20.10;99.90;;;;;;5077449;28;20155;-72
2023/08/12 00:56:26;;;;;;;12.00;6.80;;;20.00;99.90;;;;;;5076654;28;20466;-72
2023/08/12 00:58:53;;;;;;;11.80;7.28;;;20.10;99.90;;;;;;5078152;28;20052;-72
2023/08/12 01:01:20;;;;;;;12.13;7.90;;;20.10;99.90;;;;;;5076772;28;20056;-72
2023/08/12 01:03:45;;;;;;;9.57;7.50;;;20.00;99.90;;;;;;5079009;28;20048;-73
2023/08/12 01:06:12;;;;;;;12.77;7.35;;;20.10;99.90;;;;;;5079673;28;20041;-72
2023/08/12 01:08:38;;;;;;;8.68;6.72;;;20.00;99.90;;;;;;5080858;28;20044;-73
2023/08/12 01:11:26;;;;;;;16.15;8.65;;;20.00;99.90;;;;;;5080252;28;20056;-72
2023/08/12 01:13:58;;;;;;;11.05;7.32;;;20.00;99.90;;;;;;5078950;28;20052;-72
2023/08/12 01:16:28;;;;;;;14.75;8.02;;;20.00;99.90;;;;;;5081892;28;20044;-72
2023/08/12 01:18:55;;;;;;;12.27;7.93;;;20.00;99.90;;;;;;5079434;28;20049;-73
2023/08/12 01:21:22;;;;;;;11.65;7.90;;;19.90;99.90;;;;;;5062656;28;20072;-72
2023/08/12 01:23:48;;;;;;;10.43;8.02;;;19.80;99.90;;;;;;5079957;28;20070;-73
2023/08/12 01:26:13;;;;;;;13.25;8.60;;;19.90;99.90;;;;;;5079036;28;20067;-74
2023/08/12 01:28:39;;;;;;;15.95;8.80;;;19.80;99.90;;;;;;5080179;28;20435;-73
2023/08/12 01:31:32;;;;;;;13.00;7.88;;;19.80;99.90;;;;;;5078694;28;20055;-73
2023/08/12 01:34:31;;;;;;;14.48;8.73;;;19.80;99.90;;;;;;5081348;28;20079;-73
2023/08/12 01:36:58;;;;;;;13.70;9.23;;;19.90;99.90;;;;;;5079347;28;20056;-73
2023/08/12 01:39:26;;;;;;;12.68;8.32;;;19.80;99.90;;;;;;5079726;28;20051;-73
2023/08/12 01:41:54;;;;;;;17.05;9.40;;;19.80;99.90;;;;;;5079787;28;20530;-73
2023/08/12 01:44:19;;;;;;;14.75;9.40;;;19.70;99.90;;;;;;5080048;28;20059;-73
2023/08/12 01:46:46;;;;;;;13.20;8.65;;;19.70;99.90;;;;;;5079193;28;20033;-72
2023/08/12 01:49:12;;;;;;;16.08;9.43;;;19.70;99.90;;;;;;5080451;28;20067;-73
2023/08/12 01:51:38;;;;;;;13.23;8.60;;;19.70;99.90;;;;;;5078277;28;20107;-73
2023/08/12 01:54:04;;;;;;;12.55;8.75;;;19.60;99.90;;;;;;5079157;28;20055;-74
2023/08/12 01:56:29;;;;;;;16.05;9.10;;;19.70;99.90;;;;;;5078241;28;20127;-73
2023/08/12 01:58:55;;;;;;;12.00;8.25;;;19.70;99.90;;;;;;5079899;28;20135;-73
2023/08/12 02:01:21;;;;;;;14.68;8.32;;;19.70;99.90;;;;;;5079607;28;20040;-73
2023/08/12 02:03:46;;;;;;;14.65;8.93;;;19.70;99.90;;;;;;5080732;28;20037;-74
2023/08/12 02:06:12;;;;;;;14.02;8.88;;;19.70;99.90;;;;;;5078942;28;20120;-72
2023/08/12 02:08:38;;;;;;;13.55;9.10;;;19.70;99.90;;;;;;5080119;28;20037;-73
2023/08/12 02:11:04;;;;;;;18.45;9.50;;;19.70;99.90;;;;;;5062752;28;20071;-72
2023/08/12 02:13:30;;;;;;;19.60;8.75;;;19.70;99.90;;;;;;5079288;28;20049;-73
2023/08/12 02:15:55;;;;;;;12.38;9.20;;;19.70;99.90;;;;;;5080900;28;20041;-74
2023/08/12 02:18:21;;;;;;;16.05;9.55;;;19.70;99.90;;;;;;5078176;28;20045;-73
2023/08/12 02:20:48;;;;;;;14.32;9.18;;;19.70;99.90;;;;;;5080399;28;20101;-74
2023/08/12 02:23:14;;;;;;;15.82;10.27;;;19.70;99.90;;;;;;5079995;28;20044;-73
2023/08/12 02:25:39;;;;;;;13.75;9.40;;;19.70;99.90;;;;;;5098723;28;20107;-73
2023/08/12 02:28:05;;;;;;;15.63;9.30;;;19.70;99.90;;;;;;5100443;28;20392;-73
2023/08/12 02:30:31;;;;;;;16.23;10.27;;;19.70;99.90;;;;;;5064522;28;20055;-73
2023/08/12 02:32:57;;;;;;;17.65;10.10;;;19.70;99.90;;;;;;5100814;28;20404;-72
2023/08/12 02:35:22;;;;;;;15.43;9.77;;;19.70;99.90;;;;;;5098752;28;20051;-73
2023/08/12 02:37:49;;;;;;;16.15;9.73;;;19.80;99.90;;;;;;5100430;28;20055;-73
2023/08/12 02:40:14;;;;;;;13.60;9.35;;;19.80;99.90;;;;;;5099402;28;20052;-73
2023/08/12 02:42:40;;;;;;;15.38;9.85;;;19.80;99.90;;;;;;5099624;28;20078;-74
2023/08/12 02:45:06;;;;;;;18.20;9.85;;;19.70;99.90;;;;;;5099669;28;20072;-73
2023/08/12 02:47:32;;;;;;;15.70;10.27;;;19.70;99.90;;;;;;5097594;28;20078;-72
2023/08/12 02:49:58;;;;;;;15.90;10.48;;;19.70;99.90;;;;;;5099634;28;20097;-73
2023/08/12 02:52:23;;;;;;;15.13;9.98;;;19.70;99.90;;;;;;5098451;28;20055;-74
2023/08/12 02:54:49;;;;;;;14.18;9.98;;;19.70;99.90;;;;;;5100211;28;20059;-73
2023/08/12 02:57:15;;;;;;;19.15;10.57;;;19.80;99.90;;;;;;5097330;28;20537;-73
2023/08/12 02:59:41;;;;;;;17.75;9.90;;;19.80;99.90;;;;;;5099287;28;20043;-74
2023/08/12 03:02:07;;;;;;;20.05;10.05;;;19.70;99.90;;;;;;5097874;28;20094;-73
2023/08/12 03:04:32;;;;;;;17.27;9.90;;;19.70;99.90;;;;;;5098654;28;20075;-73
2023/08/12 03:06:58;;;;;;;14.45;9.70;;;19.70;99.90;;;;;;5097977;28;20044;-73
2023/08/12 03:09:24;;;;;;;17.73;9.82;;;19.60;99.90;;;;;;5096853;28;20062;-73
2023/08/12 03:11:50;;;;;;;18.38;10.10;;;19.60;99.90;;;;;;5099932;28;20040;-74
2023/08/12 03:14:15;;;;;;;17.40;9.90;;;19.60;99.90;;;;;;5096856;28;20517;-72
2023/08/12 03:16:41;;;;;;;15.35;9.45;;;19.60;99.90;;;;;;5097332;28;20044;-73
2023/08/12 03:19:07;;;;;;;12.90;9.00;;;19.60;99.90;;;;;;5098789;28;20612;-72
2023/08/12 03:21:34;;;;;;;13.25;9.00;;;19.60;99.90;;;;;;5096868;28;20493;-73
2023/08/12 03:24:00;;;;;;;13.30;9.45;;;19.50;99.90;;;;;;5098989;28;20609;-73
2023/08/12 03:26:25;;;;;;;14.32;9.00;;;19.50;99.90;;;;;;5079389;28;20074;-72
2023/08/12 03:28:51;;;;;;;13.27;9.07;;;19.50;99.90;;;;;;5098190;28;20541;-73
2023/08/12 03:31:17;;;;;;;15.52;8.90;;;19.50;99.90;;;;;;5097793;28;20059;-73
2023/08/12 03:33:43;;;;;;;13.68;8.00;;;19.50;99.90;;;;;;5098935;28;20040;-73
2023/08/12 03:36:09;;;;;;;14.32;8.77;;;19.50;99.90;;;;;;5098616;28;20052;-73
2023/08/12 03:38:35;;;;;;;15.25;9.93;;;19.50;99.90;;;;;;5096650;28;20051;-74
2023/08/12 03:41:02;;;;;;;14.85;9.73;;;19.50;99.90;;;;;;5080369;28;20096;-73
2023/08/12 03:43:28;;;;;;;14.43;10.38;;;19.50;99.90;;;;;;5096151;28;20047;-74
2023/08/12 03:45:54;;;;;;;13.85;9.20;;;19.40;99.90;;;;;;5097527;28;20046;-73
2023/08/12 03:48:20;;;;;;;14.73;9.70;;;19.40;99.90;;;;;;5081509;28;20066;-74
2023/08/12 03:50:47;;;;;;;13.45;9.45;;;19.40;99.90;;;;;;5078338;28;20060;-73
2023/08/12 03:53:13;;;;;;;13.40;9.27;;;19.40;99.90;;;;;;5077962;28;20091;-73
2023/08/12 03:55:38;;;;;;;16.27;9.80;;;19.40;99.90;;;;;;5076375;28;20048;-74
2023/08/12 03:58:04;;;;;;;15.13;9.25;;;19.40;99.90;;;;;;5076849;28;20076;-73
2023/08/12 04:00:31;;;;;;;16.45;11.57;;;19.40;99.90;;;;;;5075847;28;20780;-74
2023/08/12 04:02:56;;;;;;;12.05;9.73;;;19.60;99.90;;;;;;5078512;28;20056;-73
2023/08/12 04:05:22;;;;;;;14.30;9.15;;;19.50;99.90;;;;;;5075841;28;20064;-73
2023/08/12 04:07:48;;;;;;;14.00;9.43;;;19.50;99.90;;;;;;5077113;28;20059;-74
2023/08/12 04:10:14;;;;;;;13.80;10.30;;;19.50;99.90;;;;;;5077731;28;20044;-74
2023/08/12 04:12:41;;;;;;;16.52;10.63;;;19.50;99.90;;;;;;5077798;28;20051;-73
2023/08/12 04:15:08;;;;;;;15.77;10.38;;;19.50;99.90;;;;;;5078099;28;20040;-74
2023/08/12 04:17:34;;;;;;;15.95;9.65;;;19.40;99.90;;;;;;5059238;28;20056;-74
2023/08/12 04:20:00;;;;;;;16.25;10.07;;;19.40;99.90;;;;;;5060141;28;20047;-73
2023/08/12 04:22:26;;;;;;;14.48;9.45;;;19.40;99.90;;;;;;5075437;28;20055;-73
2023/08/12 04:24:51;;;;;;;16.67;9.48;;;19.40;99.90;;;;;;5078226;28;20060;-73
2023/08/12 04:27:17;;;;;;;17.35;9.63;;;19.40;99.90;;;;;;5075942;28;20416;-73
2023/08/12 04:29:43;;;;;;;17.85;10.30;;;19.30;99.90;;;;;;5077372;28;20041;-74
2023/08/12 04:32:09;;;;;;;15.35;8.88;;;19.30;99.90;;;;;;5077761;28;20060;-73
2023/08/12 04:34:34;;;;;;;13.82;9.02;;;19.30;99.90;;;;;;5075969;28;20092;-74
2023/08/12 04:37:00;;;;;;;14.40;9.40;;;19.40;99.90;;;;;;5076822;28;20048;-73
2023/08/12 04:39:26;;;;;;;14.02;10.02;;;19.40;99.90;;;;;;5079538;28;20051;-74
2023/08/12 04:41:52;;;;;;;17.27;10.13;;;19.40;99.90;;;;;;5082705;28;20058;-73
2023/08/12 04:44:18;;;;;;;16.25;10.77;;;19.40;99.90;;;;;;5079734;28;20095;-74
2023/08/12 04:46:44;;;;;;;14.25;10.55;;;19.40;99.90;;;;;;5082041;28;20090;-74
2023/08/12 04:49:10;;;;;;;18.90;10.52;;;19.40;99.90;;;;;;5063858;28;20052;-73
2023/08/12 04:51:36;;;;;;;16.27;10.35;;;19.40;99.90;;;;;;5081677;28;20045;-73
2023/08/12 04:54:01;;;;;;;16.67;11.20;;;19.40;99.90;;;;;;5080977;28;20054;-73
2023/08/12 04:56:30;;;;;;;17.05;10.45;;;19.40;99.90;;;;;;5081455;28;20074;-74
2023/08/12 04:58:56;;;;;;;15.95;10.10;;;19.40;99.90;;;;;;5082164;28;20064;-71
2023/08/12 05:01:22;;;;;;;16.20;10.85;;;19.40;99.90;;;;;;5081292;28;20040;-73
2023/08/12 05:03:47;;;;;;;18.58;11.43;;;19.40;99.90;;;;;;5080328;28;20044;-73
2023/08/12 05:06:13;;;;;;;21.63;11.77;;;19.40;99.90;;;;;;5081332;28;20044;-73
2023/08/12 05:08:39;;;;;;;;;;;19.40;99.90;;;;;;5079925;28;20143;-73
2023/08/12 05:11:05;;;;;;;18.50;11.15;;;19.40;99.90;;;;;;5081671;28;19920;-74
2023/08/12 05:13:30;;;;;;;22.73;11.68;;;19.30;99.90;;;;;;5080134;28;20067;-73
2023/08/12 05:15:56;;;;;;;23.05;13.05;;;19.40;99.90;;;;;;5080445;28;20083;-73
2023/08/12 05:18:26;;;;;;;18.13;11.63;;;19.40;99.90;;;;;;5080485;28;20048;-73
2023/08/12 05:20:52;;;;;;;17.52;11.18;;;19.40;99.90;;;;;;5079960;28;20111;-74
2023/08/12 05:23:20;;;;;;;16.98;12.02;;;19.30;99.90;;;;;;5081259;28;20048;-73
2023/08/12 05:25:46;;;;;;;18.15;12.25;;;19.40;99.90;;;;;;5078842;28;20048;-73
2023/08/12 05:28:12;;;;;;;22.73;12.60;;;19.40;99.90;;;;;;5081151;28;20717;-73
2023/08/12 05:30:38;;;;;;;21.42;13.00;;;19.40;99.90;;;;;;5078898;28;20051;-73
2023/08/12 05:33:05;;;;;;;20.88;13.13;;;19.40;99.90;;;;;;5081909;28;20041;-73
2023/08/12 05:35:36;;;;;;;20.60;13.68;;;19.60;99.90;;;;;;5078968;28;20044;-73
2023/08/12 05:38:02;;;;;;;20.33;13.63;;;19.60;99.90;;;;;;5079757;28;20054;-73
2023/08/12 05:40:28;;;;;;;19.30;13.75;;;19.70;99.90;;;;;;5081073;28;20041;-74
2023/08/12 05:42:54;;;;;;;21.70;13.85;;;19.70;99.90;;;;;;5078833;28;20044;-73
2023/08/12 05:45:20;;;;;;;24.58;14.43;;;19.70;99.90;;;;;;5079847;28;20067;-73
2023/08/12 05:47:46;;;;;;;22.88;14.77;;;19.70;99.90;;;;;;5080007;28;20045;-74
2023/08/12 05:50:12;;;;;;;23.60;14.50;;;19.70;99.90;;;;;;5078672;28;20899;-73
2023/08/12 05:52:38;;;;;;;23.13;14.15;;;19.80;99.90;;;;;;5070390;28;20079;-74
2023/08/12 05:55:04;;;;;;;25.88;14.98;;;19.70;99.90;;;;;;5060946;28;20051;-73
2023/08/12 05:57:30;;;;;;;26.70;15.65;;;19.70;99.90;;;;;;5058588;28;20045;-74
2023/08/12 05:59:56;;;;;;;23.83;15.05;;;19.80;99.90;;;;;;5041798;28;20542;-72
2023/08/12 06:02:22;;;;;;;26.77;14.82;;;19.80;99.90;;;;;;5059144;28;20072;-74
2023/08/12 06:04:48;;;;;;;24.67;16.20;;;19.90;99.90;;;;;;5058985;28;20045;-74
2023/08/12 06:07:13;;;;;;;26.38;15.85;;;20.10;99.90;;;;;;5042687;28;20052;-74
2023/08/12 06:09:39;;;;;;;27.90;16.38;;;20.20;99.90;;;;;;5059021;28;20056;-74
2023/08/12 06:12:05;;;;;;;31.90;18.33;;;20.30;99.90;;;;;;5059026;28;20057;-74
2023/08/12 06:14:31;;;;;;;32.42;19.08;;;20.40;99.90;;;;;;5069196;28;20036;-74
2023/08/12 06:16:57;;;;;;;36.97;19.20;;;20.40;99.90;;;;;;5093140;28;20036;-74
2023/08/12 06:19:23;;;;;;;29.33;18.52;;;20.40;99.90;;;;;;5081108;28;20048;-74
2023/08/12 06:21:49;;;;;;;38.60;18.90;;;20.40;99.90;;;;;;5078219;28;20110;-73
2023/08/12 06:24:15;;;;;;;30.42;19.98;;;20.40;99.90;;;;;;5080893;28;20062;-73
2023/08/12 06:26:40;;;;;;;34.13;18.42;;;20.40;99.90;;;;;;5079049;28;20040;-73
2023/08/12 06:29:06;;;;;;;38.00;19.92;;;20.40;99.90;;;;;;5096673;28;20046;-72
2023/08/12 06:31:32;;;;;;;27.00;17.90;;;20.40;99.90;;;;;;5098104;28;20056;-73
2023/08/12 06:33:58;;;;;;;31.27;19.20;;;20.40;99.90;;;;;;5098425;28;20639;-73
2023/08/12 06:36:23;;;;;;;33.03;19.75;;;20.50;99.90;;;;;;5099909;28;20042;-72
2023/08/12 06:38:49;;;;;;;35.35;20.40;;;20.50;99.90;;;;;;5097436;28;20819;-73
2023/08/12 06:41:15;;;;;;;31.45;20.67;;;20.50;99.90;;;;;;5098240;28;20077;-73
2023/08/12 06:43:41;;;;;;;28.55;18.92;;;20.50;99.90;;;;;;5098385;28;20048;-73
2023/08/12 06:46:06;;;;;;;29.00;18.70;;;20.50;99.90;;;;;;5100221;28;20040;-73
2023/08/12 06:48:32;;;;;;;30.33;19.77;;;20.50;99.90;;;;;;5097599;28;20052;-74
2023/08/12 06:50:58;;;;;;;30.90;18.95;;;20.50;99.90;;;;;;5099086;28;20051;-74
2023/08/12 06:53:26;;;;;;;30.13;19.70;;;20.50;99.90;;;;;;5099342;28;20048;-74
2023/08/12 06:55:52;;;;;;;37.17;20.45;;;20.50;99.90;;;;;;5098460;28;20067;-72
2023/08/12 06:58:17;;;;;;;33.70;20.35;;;20.50;99.90;;;;;;5099427;28;20063;-72
2023/08/12 07:00:43;;;;;;;30.38;18.90;;;20.50;99.90;;;;;;5087622;28;20131;-73
2023/08/12 07:03:09;;;;;;;34.30;18.33;;;20.50;99.90;;;;;;5077360;28;20079;-70
2023/08/12 07:05:35;;;;;;;30.67;19.98;;;20.50;99.90;;;;;;5076812;28;20150;-71
2023/08/12 07:08:00;;;;;;;28.35;18.88;;;20.40;99.90;;;;;;5078989;28;20641;-70
2023/08/12 07:10:26;;;;;;;26.05;18.83;;;20.40;99.90;;;;;;5060229;28;20048;-70
2023/08/12 07:12:52;;;;;;;34.90;20.13;;;20.40;99.90;;;;;;5077983;28;20064;-70
2023/08/12 07:15:18;;;;;;;28.95;18.92;;;20.40;99.90;;;;;;5078819;28;20254;-70
2023/08/12 07:17:43;;;;;;;26.65;18.05;;;20.50;99.90;;;;;;5077684;28;20052;-70
2023/08/12 07:20:09;;;;;;;29.25;19.85;;;20.40;99.90;;;;;;5077772;28;20054;-70
2023/08/12 07:22:35;;;;;;;26.90;17.90;;;20.40;99.90;;;;;;5077783;28;20509;-70
2023/08/12 07:25:01;;;;;;;28.85;19.30;;;20.50;99.90;;;;;;5078457;28;20070;-70
2023/08/12 07:27:27;;;;;;;22.45;16.83;;;20.40;99.90;;;;;;5078227;28;20120;-70
2023/08/12 07:29:53;;;;;;;29.75;17.02;;;20.40;99.90;;;;;;5076724;28;20090;-70
2023/08/12 07:32:19;;;;;;;26.98;18.70;;;20.40;99.90;;;;;;5078700;28;20048;-69
2023/08/12 07:34:45;;;;;;;27.50;17.58;;;20.40;99.90;;;;;;5076063;28;20476;-70
2023/08/12 07:37:11;;;;;;;26.85;16.73;;;20.30;99.90;;;;;;5079035;28;20045;-70
2023/08/12 07:39:38;;;;;;;24.17;16.20;;;20.30;99.90;;;;;;5077384;28;20053;-70
2023/08/12 07:42:04;;;;;;;26.15;16.45;;;20.30;99.90;;;;;;5078889;28;20048;-68
2023/08/12 07:44:30;;;;;;;24.50;15.95;;;20.30;99.90;;;;;;5076582;28;20106;-70
2023/08/12 07:46:56;;;;;;;26.60;17.00;;;20.30;99.90;;;;;;5076333;28;20104;-70
2023/08/12 07:49:22;;;;;;;26.65;16.52;;;20.30;99.90;;;;;;5078026;28;20059;-69
2023/08/12 07:51:48;;;;;;;24.77;16.77;;;20.30;99.90;;;;;;5076146;28;20068;-70
2023/08/12 07:54:14;;;;;;;22.92;16.15;;;20.30;99.90;;;;;;5077275;28;20107;-70
2023/08/12 07:56:40;;;;;;;21.10;16.17;;;20.40;99.90;;;;;;5075495;28;20075;-70
2023/08/12 07:59:06;;;;;;;25.88;15.40;;;20.30;99.90;;;;;;5078588;28;20036;-70
2023/08/12 08:01:31;;;;;;;22.98;15.90;;;20.30;99.90;;;;;;5076382;28;20051;-71
2023/08/12 08:03:57;;;;;;;25.77;15.15;;;20.40;99.90;;;;;;5076665;28;20088;-69
2023/08/12 08:06:23;;;;;;;21.77;14.85;;;20.30;99.90;;;;;;5078324;28;20049;-70
2023/08/12 08:08:49;;;;;;;20.60;14.98;;;20.30;99.90;;;;;;5075749;28;20087;-71
2023/08/12 08:11:15;;;;;;;25.63;14.55;;;20.30;99.90;;;;;;5078524;28;20713;-71
2023/08/12 08:13:41;;;;;;;22.98;14.88;;;20.30;99.90;;;;;;5074772;28;20032;-71
2023/08/12 08:16:07;;;;;;;26.40;14.15;;;20.30;99.90;;;;;;5078935;28;20049;-77
2023/08/12 08:18:33;;;;;;;25.95;14.65;;;20.30;99.90;;;;;;5077753;28;20052;-75
2023/08/12 08:20:59;;;;;;;22.73;15.13;;;20.30;99.90;;;;;;5059935;28;20064;-75
2023/08/12 08:23:24;;;;;;;24.50;14.45;;;20.30;99.90;;;;;;5077995;28;20048;-76
2023/08/12 08:25:51;;;;;;;30.23;15.73;;;20.30;99.90;;;;;;5075521;28;20045;-73
2023/08/12 08:28:17;;;;;;;22.67;13.50;;;20.20;99.90;;;;;;5076415;28;20100;-73
2023/08/12 08:30:43;;;;;;;20.70;11.65;;;20.20;99.90;;;;;;5073063;28;20040;-74
2023/08/12 08:33:09;;;;;;;13.60;10.98;;;20.20;99.90;;;;;;5078447;28;20157;-80
2023/08/12 08:35:34;;;;;;;17.42;11.77;;;20.30;99.90;;;;;;5059138;28;20048;-78
2023/08/12 08:38:00;;;;;;;13.90;10.23;;;20.30;99.90;;;;;;5070081;28;20041;-79
2023/08/12 08:40:27;;;;;;;17.30;11.73;;;20.30;99.90;;;;;;5067389;28;20048;-73
2023/08/12 08:42:53;;;;;;;19.20;13.60;;;20.30;99.90;;;;;;5077283;28;20071;-75
2023/08/12 08:45:23;;;;;;;17.17;14.23;;;20.40;99.90;;;;;;5078203;28;20074;-77
2023/08/12 08:47:51;;;;;;;18.75;14.50;;;20.40;99.90;;;;;;5076897;28;20053;-76
2023/08/12 08:50:19;;;;;;;18.95;14.60;;;20.40;99.90;;;;;;5078088;28;20117;-72
2023/08/12 08:52:46;;;;;;;19.27;14.45;;;20.50;99.90;;;;;;5070181;28;20044;-74
2023/08/12 08:55:12;;;;;;;20.60;13.70;;;20.50;99.90;;;;;;5060308;28;20049;-74
2023/08/12 08:57:39;;;;;;;18.45;14.27;;;20.50;99.90;;;;;;5057740;28;20105;-73
2023/08/12 09:00:07;;;;;;;18.83;13.55;;;20.50;99.90;;;;;;5060839;28;20054;-74
2023/08/12 09:02:34;;;;;;;17.85;13.45;;;20.40;99.90;;;;;;5073402;28;20102;-74
2023/08/12 09:05:02;;;;;;;19.80;14.48;;;20.30;99.90;;;;;;5075204;28;20109;-74
2023/08/12 09:07:29;;;;;;;18.50;14.25;;;20.30;99.90;;;;;;5076402;28;20041;-74
2023/08/12 09:09:57;;;;;;;17.02;13.98;;;20.40;99.90;;;;;;5075838;28;20040;-72
2023/08/12 09:12:25;;;;;;;20.00;13.60;;;20.40;99.90;;;;;;5076034;28;20048;-73
2023/08/12 09:14:50;;;;;;;20.90;13.00;;;20.40;99.90;;;;;;5076317;28;20411;-73
2023/08/12 09:17:16;;;;;;;15.75;11.73;;;20.30;99.90;;;;;;5076846;28;20077;-73
2023/08/12 09:19:42;;;;;;;15.00;9.50;;;20.30;99.90;;;;;;5077453;28;20052;-77
2023/08/12 09:22:11;;;;;;;16.23;9.45;;;20.30;99.90;;;;;;5074929;28;20040;-78
2023/08/12 09:24:37;;;;;;;10.18;8.93;;;20.30;99.90;;;;;;5062310;28;20041;-75
2023/08/12 09:27:06;;;;;;;13.15;9.07;;;20.20;99.90;;;;;;5078528;28;20090;-76
2023/08/12 09:29:35;;;;;;;13.32;9.02;;;20.20;99.90;;;;;;5080558;28;20064;-78
2023/08/12 09:32:11;;;;;;;10.77;9.38;;;20.30;99.90;;;;;;5080702;28;20049;-75
2023/08/12 09:34:37;;;;;;;12.77;8.88;;;20.20;99.90;;;;;;5078006;28;20048;-74
2023/08/12 09:37:03;;;;;;;16.17;9.27;;;20.30;99.90;;;;;;5081027;28;20087;-78
2023/08/12 09:39:33;;;;;;;13.40;8.55;;;20.20;99.90;;;;;;5077904;28;20048;-76
2023/08/12 09:41:59;;;;;;;9.88;8.70;;;20.20;99.90;;;;;;5081052;28;20048;-75
2023/08/12 09:44:25;;;;;;;10.27;8.38;;;20.10;99.90;;;;;;5061891;28;20055;-73
2023/08/12 09:46:57;;;;;;;8.07;6.82;;;20.10;99.90;;;;;;5080289;28;20045;-73
2023/08/12 09:49:23;;;;;;;7.05;5.40;;;20.10;99.90;;;;;;5062314;28;20048;-77
2023/08/12 09:51:51;;;;;;;9.50;5.50;;;20.00;99.90;;;;;;5079515;28;20118;-79
2023/08/12 09:54:19;;;;;;;8.40;5.45;;;20.00;99.90;;;;;;5080833;28;20066;-76
2023/08/12 09:56:48;;;;;;;5.63;4.80;;;19.90;99.90;;;;;;5060987;28;20048;-73
2023/08/12 09:59:20;;;;;;;6.28;4.97;;;19.90;99.90;;;;;;5079161;28;20068;-73
2023/08/12 10:01:47;;;;;;;5.03;4.35;;;19.90;99.90;;;;;;5079982;28;20439;-66
2023/08/12 10:04:17;;;;;;;5.28;4.03;;;20.00;99.90;;;;;;5079456;28;20037;-77
2023/08/12 10:06:43;;;;;;;4.78;3.85;;;20.00;99.90;;;;;;5068725;28;20894;-69
2023/08/12 10:09:11;;;;;;;4.90;3.80;;;20.00;99.90;;;;;;5059125;28;20077;-70
2023/08/12 10:11:37;;;;;;;4.05;3.65;;;20.00;99.90;;;;;;5059323;28;20056;-70
2023/08/12 10:14:08;;;;;;;6.60;3.25;;;20.00;99.90;;;;;;5059040;28;20138;-69
2023/08/12 10:16:35;;;;;;;3.60;3.05;;;20.00;99.90;;;;;;5058709;28;20128;-72
2023/08/12 10:19:02;;;;;;;3.90;3.13;;;20.00;99.90;;;;;;5058338;28;20060;-67
2023/08/12 10:21:28;;;;;;;5.10;2.80;;;20.00;99.90;;;;;;5059614;28;20075;-72
2023/08/12 10:23:57;;;;;;;5.35;3.38;;;20.10;99.90;;;;;;5062604;28;20096;-75
2023/08/12 10:26:24;;;;;;;4.65;3.25;;;20.10;99.90;;;;;;5062250;28;20043;-78
2023/08/12 10:28:50;;;;;;;4.63;3.15;;;20.10;99.90;;;;;;5061200;28;20045;-77
2023/08/12 10:31:16;;;;;;;4.78;3.30;;;20.00;99.90;;;;;;5059278;28;20051;-79
2023/08/12 10:33:42;;;;;;;4.85;3.25;;;20.10;99.90;;;;;;5059285;28;20037;-70
2023/08/12 10:36:08;;;;;;;5.10;2.80;;;20.10;99.90;;;;;;5057261;28;20048;-71
2023/08/12 10:38:34;;;;;;;3.38;2.95;;;20.10;99.90;;;;;;5057439;28;20051;-77
2023/08/12 10:41:35;;;;;;;3.15;2.80;;;20.10;99.90;;;;;;5059523;28;20041;-69
2023/08/12 10:44:04;;;;;;;5.10;3.17;;;20.20;99.90;;;;;;5049882;28;20056;-74
2023/08/12 10:46:35;;;;;;;3.70;2.97;;;20.20;99.90;;;;;;5059246;28;20491;-73
2023/08/12 10:49:09;;;;;;;3.97;2.88;;;20.30;99.90;;;;;;5057519;28;20063;-71
2023/08/12 10:51:53;;;;;;;2.50;2.00;;;20.30;99.90;;;;;;5058592;28;20127;-73
2023/08/12 10:54:29;;;;;;;2.50;2.03;;;20.40;99.90;;;;;;5059908;28;20045;-72
2023/08/12 10:57:11;;;;;;;2.00;1.55;;;20.40;99.90;;;;;;5058344;28;20079;-73
2023/08/12 10:59:46;;;;;;;2.07;1.23;;;20.40;99.90;;;;;;5057367;28;20173;-75
2023/08/12 11:02:33;;;;;;;4.28;1.80;;;20.40;99.90;;;;;;5058958;28;20048;-72
2023/08/12 11:05:09;;;;;;;1.98;1.40;;;20.40;99.90;;;;;;5057946;28;20056;-72
2023/08/12 11:07:44;;;;;;;1.50;1.30;;;20.50;99.90;;;;;;5041421;28;20045;-73
2023/08/12 11:10:14;;;;;;;2.00;1.50;;;20.50;99.90;;;;;;5058641;28;20127;-75
2023/08/12 11:12:45;;;;;;;1.20;1.00;;;20.60;99.90;;;;;;5040200;28;20056;-76
2023/08/12 11:15:12;;;;;;;1.20;1.00;;;20.60;99.90;;;;;;5058824;28;20041;-76
2023/08/12 11:17:40;;;;;;;0.85;0.77;;;20.70;99.90;;;;;;5057700;28;20059;-76
2023/08/12 11:20:09;;;;;;;2.88;0.90;;;20.70;99.90;;;;;;5059281;28;20060;-75
2023/08/12 11:22:43;;;;;;;1.10;1.00;;;20.80;99.90;;;;;;5057166;28;20132;-74
2023/08/12 11:25:11;;;;;;;1.27;1.00;;;20.80;99.90;;;;;;5066078;28;20040;-75
2023/08/12 11:27:41;;;;;;;1.10;0.90;;;20.80;99.90;;;;;;5068953;28;20041;-75
2023/08/12 11:30:08;;;;;;;1.35;0.77;;;20.70;99.90;;;;;;5067022;28;20075;-74
2023/08/12 11:32:34;;;;;;;0.73;0.50;;;20.70;99.90;;;;;;5077350;28;20041;-76
2023/08/12 11:35:00;;;;;;;1.98;0.57;;;20.60;99.90;;;;;;5076230;28;20036;-76
2023/08/12 11:37:26;;;;;;;0.90;0.50;;;20.60;99.90;;;;;;5077876;28;20114;-76
2023/08/12 11:39:52;;;;;;;1.00;0.63;;;20.60;99.90;;;;;;5074831;28;20041;-76
2023/08/12 11:42:18;;;;;;;1.23;0.70;;;20.50;99.90;;;;;;5058839;28;20041;-76
2023/08/12 11:44:44;;;;;;;0.52;0.52;;;20.50;99.90;;;;;;5057472;28;20049;-76
2023/08/12 11:47:09;;;;;;;0.60;0.60;;;20.50;99.90;;;;;;5057314;28;20045;-77
2023/08/12 11:49:35;;;;;;;0.60;0.60;;;20.50;99.90;;;;;;5057837;28;20048;-76
2023/08/12 11:52:01;;;;;;;0.50;0.50;;;20.60;99.90;;;;;;5038834;28;20079;-78
2023/08/12 11:54:28;;;;;;;2.75;0.70;;;20.70;99.90;;;;;;5057163;28;20049;-76
2023/08/12 11:56:53;;;;;;;1.98;0.80;;;20.80;99.90;;;;;;5057094;28;20033;-76
2023/08/12 11:59:22;;;;;;;2.05;0.60;;;20.90;99.90;;;;;;5057506;28;20044;-75
2023/08/12 12:01:50;;;;;;;1.05;1.00;;;21.00;99.90;;;;;;5057644;28;20045;-76
2023/08/12 12:04:20;;;;;;;1.35;1.10;;;21.00;99.90;;;;;;5055718;28;20048;-76
2023/08/12 12:06:46;;;;;;;1.50;1.40;;;21.10;99.90;;;;;;5057737;28;20103;-76
2023/08/12 12:09:13;;;;;;;1.25;1.15;;;21.20;99.90;;;;;;5056773;28;20041;-75
2023/08/12 12:11:40;;;;;;;1.38;1.27;;;21.20;99.90;;;;;;5056980;28;20061;-76
2023/08/12 12:14:08;;;;;;;2.45;1.60;;;21.20;99.90;;;;;;5073121;28;20049;-75
2023/08/12 12:16:51;;;;;;;1.70;1.60;;;21.30;99.90;;;;;;5077046;28;20044;-76
2023/08/12 12:19:22;;;;;;;3.72;1.50;;;21.40;99.90;;;;;;5076736;28;20045;-76
2023/08/12 12:21:49;;;;;;;1.70;1.17;;;21.30;99.90;;;;;;5076191;28;20519;-78
2023/08/12 12:24:17;;;;;;;2.50;1.38;;;21.40;99.90;;;;;;5078007;28;20041;-76
2023/08/12 12:26:44;;;;;;;1.48;1.20;;;21.30;99.90;;;;;;5076512;28;20059;-76
2023/08/12 12:29:13;;;;;;;1.83;1.45;;;21.30;99.90;;;;;;5043090;28;20045;-76
2023/08/12 12:31:41;;;;;;;1.38;1.27;;;21.30;99.90;;;;;;5077544;28;20048;-75
2023/08/12 12:34:09;;;;;;;1.73;1.52;;;21.20;99.90;;;;;;5076847;28;20075;-76